createdAt,value
2022-10-19T07:44:44.903Z,8408.00
2022-10-19T07:45:45.391Z,8556.00
2022-10-19T07:46:45.936Z,8448.00
2022-10-19T07:47:46.427Z,8348.00
2022-10-19T07:48:46.939Z,9564.00
2022-10-19T07:49:48.007Z,8932.00
2022-10-19T07:50:48.556Z,9928.00
2022-10-19T07:51:49.103Z,27520.00
2022-10-19T07:52:49.656Z,40032.00
2022-10-19T07:53:50.190Z,36992.00
2022-10-19T07:54:51.030Z,43008.00
2022-10-19T07:55:51.613Z,51776.00
2022-10-19T07:56:52.165Z,57888.00
2022-10-19T07:57:52.709Z,66240.00
2022-10-19T07:58:53.268Z,67776.00
2022-10-19T07:59:53.885Z,66144.00
2022-10-19T08:00:54.480Z,68864.00
2022-10-19T08:01:55.124Z,68672.00
2022-10-19T08:03:19.248Z,69120.00
2022-10-19T08:04:43.298Z,63776.00
2022-10-19T08:05:02.013Z,70304.00
2022-10-19T08:05:59.225Z,68160.00
2022-10-19T08:06:59.242Z,66400.00
2022-10-19T08:07:59.758Z,66848.00
2022-10-19T08:09:00.799Z,71168.00
2022-10-19T08:10:01.339Z,73888.00
2022-10-19T08:11:01.771Z,68448.00
2022-10-19T08:12:02.751Z,66144.00
2022-10-19T08:13:03.270Z,65984.00
2022-10-19T08:14:03.856Z,64288.00
2022-10-19T08:15:04.345Z,70880.00
2022-10-19T08:16:04.825Z,70624.00
2022-10-19T08:17:05.834Z,66336.00
2022-10-19T08:18:06.334Z,73280.00
2022-10-19T08:19:06.878Z,75232.00
2022-10-19T08:20:07.384Z,66752.00
2022-10-19T08:21:07.966Z,71808.00
2022-10-19T08:22:08.405Z,77280.00
2022-10-19T08:23:08.911Z,73472.00
2022-10-19T08:24:09.458Z,70144.00
2022-10-19T08:25:10.024Z,77248.00
2022-10-19T08:26:10.540Z,75136.00
2022-10-19T08:27:11.060Z,73600.00
2022-10-19T08:28:11.571Z,73888.00
2022-10-19T08:29:12.104Z,79264.00
2022-10-19T08:30:12.624Z,77600.00
2022-10-19T08:31:13.024Z,76384.00
2022-10-19T08:32:14.000Z,72256.00
2022-10-19T08:33:14.922Z,70720.00
2022-10-19T08:34:15.933Z,75296.00
2022-10-19T08:35:16.373Z,74656.00
2022-10-19T08:36:17.302Z,79296.00
2022-10-19T08:37:26.242Z,77600.00
2022-10-19T08:38:20.188Z,77248.00
2022-10-19T08:39:19.617Z,78432.00
2022-10-19T08:40:20.688Z,80416.00
2022-10-19T08:41:21.162Z,77856.00
2022-10-19T08:42:23.102Z,76192.00
2022-10-19T08:43:23.153Z,74208.00
2022-10-19T08:44:23.676Z,79104.00
2022-10-19T08:45:24.153Z,80704.00
2022-10-19T08:46:25.172Z,82592.00
2022-10-19T08:47:25.699Z,84000.00
2022-10-19T08:48:26.216Z,82304.00
2022-10-19T08:49:26.714Z,80192.00
2022-10-19T08:50:27.276Z,75680.00
2022-10-19T08:51:27.751Z,77248.00
2022-10-19T08:52:33.438Z,79712.00
2022-10-19T08:53:30.635Z,81440.00
2022-10-19T08:54:30.169Z,86400.00
2022-10-19T08:55:31.118Z,82688.00
2022-10-19T08:56:49.945Z,76800.00
2022-10-19T08:57:33.816Z,81888.00
2022-10-19T08:58:33.383Z,81312.00
2022-10-19T08:59:34.023Z,75808.00
2022-10-19T09:00:34.712Z,76416.00
2022-10-19T09:01:37.594Z,78592.00
2022-10-19T09:02:36.100Z,77760.00
2022-10-19T09:03:55.403Z,78144.00
2022-10-19T09:04:38.419Z,75168.00
2022-10-19T09:05:38.473Z,73920.00
2022-10-19T09:06:38.910Z,72128.00
2022-10-19T09:07:39.831Z,73792.00
2022-10-19T09:08:40.842Z,79904.00
2022-10-19T09:09:41.818Z,74976.00
2022-10-19T09:10:42.357Z,74304.00
2022-10-19T09:11:42.857Z,75008.00
2022-10-19T09:14:44.891Z,69568.00
2022-10-19T09:16:00.361Z,69664.00
2022-10-19T09:20:23.257Z,69984.00
2022-10-19T09:21:20.690Z,71776.00
2022-10-19T09:22:21.629Z,70176.00
2022-10-19T09:23:22.653Z,70272.00
2022-10-19T09:24:46.490Z,68352.00
2022-10-19T09:25:23.953Z,69440.00
2022-10-19T09:26:24.509Z,66720.00
2022-10-19T09:27:24.985Z,65984.00
2022-10-19T09:28:31.424Z,66784.00
2022-10-19T09:29:27.815Z,66816.00
2022-10-19T09:30:27.350Z,67584.00
2022-10-19T09:31:31.502Z,71520.00
2022-10-19T09:32:28.747Z,74528.00
2022-10-19T09:33:29.269Z,77888.00
2022-10-19T09:34:29.775Z,75168.00
2022-10-19T09:35:30.205Z,78016.00
2022-10-19T09:36:49.346Z,81536.00
2022-10-19T09:37:33.175Z,82304.00
2022-10-19T09:38:32.684Z,83808.00
2022-10-19T09:39:33.204Z,83616.00
2022-10-19T09:40:33.708Z,83936.00
2022-10-19T09:41:34.264Z,79520.00
2022-10-19T09:42:35.166Z,79808.00
2022-10-19T09:43:35.761Z,78336.00
2022-10-19T09:44:36.296Z,77088.00
2022-10-19T09:45:36.789Z,71136.00
2022-10-19T09:46:38.915Z,74240.00
2022-10-19T09:47:39.277Z,77728.00
2022-10-19T09:48:38.979Z,70208.00
2022-10-19T09:49:39.515Z,72256.00
2022-10-19T09:50:40.057Z,75808.00
2022-10-19T09:51:40.605Z,79392.00
2022-10-19T09:52:41.127Z,83264.00
2022-10-19T09:53:44.731Z,81824.00
2022-10-19T09:54:45.324Z,85024.00
2022-10-19T09:56:04.780Z,78368.00
2022-10-19T09:56:56.213Z,79680.00
2022-10-19T09:57:44.836Z,80416.00
2022-10-19T09:58:45.290Z,78944.00
2022-10-19T09:59:45.890Z,83392.00
2022-10-19T10:01:05.416Z,87232.00
2022-10-19T10:01:47.619Z,80928.00
2022-10-19T10:02:48.320Z,81856.00
2022-10-19T10:03:52.434Z,81024.00
2022-10-19T10:04:50.673Z,75424.00
2022-10-19T10:05:50.206Z,77408.00
2022-10-19T10:06:50.717Z,78208.00
2022-10-19T10:07:51.299Z,76704.00
2022-10-19T10:08:51.880Z,77216.00
2022-10-19T10:09:52.358Z,78592.00
2022-10-19T10:10:53.076Z,82176.00
2022-10-19T10:12:54.584Z,76928.00
2022-10-19T10:13:55.126Z,81664.00
2022-10-19T10:14:55.598Z,77024.00
2022-10-19T10:15:56.119Z,77792.00
2022-10-19T10:16:56.648Z,75936.00
2022-10-19T10:17:57.241Z,75872.00
2022-10-19T10:18:58.504Z,76256.00
2022-10-19T10:19:58.535Z,76096.00
2022-10-19T10:20:59.085Z,77568.00
2022-10-19T10:21:59.613Z,73664.00
2022-10-19T10:23:00.164Z,73440.00
2022-10-19T10:24:00.730Z,70720.00
2022-10-19T10:25:01.369Z,71488.00
2022-10-19T10:26:01.878Z,71808.00
2022-10-19T10:27:03.426Z,76256.00
2022-10-19T10:28:03.375Z,72960.00
2022-10-19T10:29:03.856Z,68672.00
2022-10-19T10:30:04.401Z,66944.00
2022-10-19T10:31:04.907Z,73024.00
2022-10-19T10:32:05.439Z,73696.00
2022-10-19T10:33:13.283Z,73408.00
2022-10-19T10:34:22.510Z,75296.00
2022-10-19T10:35:08.755Z,77472.00
2022-10-19T10:36:08.167Z,76000.00
2022-10-19T10:37:09.185Z,75200.00
2022-10-19T10:38:09.769Z,73824.00
2022-10-19T10:39:10.297Z,69696.00
2022-10-19T10:40:10.797Z,73088.00
2022-10-19T10:41:11.237Z,72576.00
2022-10-19T10:42:12.270Z,67040.00
2022-10-19T10:43:12.991Z,69280.00
2022-10-19T10:44:13.503Z,72800.00
2022-10-19T10:45:13.907Z,74144.00
2022-10-19T10:46:15.639Z,72192.00
2022-10-19T10:47:15.673Z,69824.00
2022-10-19T10:48:16.124Z,76448.00
2022-10-19T10:49:17.133Z,74688.00
2022-10-19T10:50:17.706Z,77280.00
2022-10-19T10:51:18.148Z,74912.00
2022-10-19T10:52:18.648Z,68800.00
2022-10-19T10:53:19.210Z,69920.00
2022-10-19T10:54:19.842Z,59296.00
2022-10-19T10:55:20.345Z,63200.00
2022-10-19T10:56:20.889Z,61600.00
2022-10-19T10:58:25.554Z,53600.00
2022-10-19T10:59:24.267Z,59040.00
2022-10-19T11:00:23.730Z,76256.00
2022-10-19T11:01:24.781Z,68640.00
2022-10-19T11:03:26.193Z,77216.00
2022-10-19T11:04:27.213Z,79008.00
2022-10-19T11:05:27.738Z,69024.00
2022-10-19T11:06:28.179Z,73408.00
2022-10-19T11:07:29.207Z,49440.00
2022-10-19T11:08:35.157Z,65120.00
2022-10-19T11:09:30.354Z,71520.00
2022-10-19T11:10:31.384Z,68448.00
2022-10-19T11:11:31.884Z,75392.00
2022-10-19T11:12:35.068Z,77504.00
2022-10-19T11:13:33.340Z,71584.00
2022-10-19T11:14:33.879Z,74400.00
2022-10-19T11:15:34.457Z,75328.00
2022-10-19T11:16:35.063Z,77664.00
2022-10-19T11:17:35.882Z,75136.00
2022-10-19T11:18:36.176Z,78528.00
2022-10-19T11:19:36.605Z,75776.00
2022-10-19T11:20:37.618Z,74496.00
2022-10-19T11:21:38.057Z,73536.00
2022-10-19T11:22:39.200Z,72352.00
2022-10-19T11:23:39.711Z,73152.00
2022-10-19T11:24:41.878Z,71680.00
2022-10-19T11:25:40.867Z,70880.00
2022-10-19T11:26:41.519Z,64096.00
2022-10-19T11:27:41.963Z,63328.00
2022-10-19T11:28:42.597Z,63168.00
2022-10-19T11:29:43.035Z,60416.00
2022-10-19T11:30:45.319Z,58432.00
2022-10-19T11:31:44.220Z,58944.00
2022-10-19T11:32:46.019Z,58720.00
2022-10-19T11:33:45.711Z,55552.00
2022-10-19T11:34:46.250Z,53472.00
2022-10-19T11:35:46.767Z,50048.00
2022-10-19T11:36:47.281Z,50720.00
2022-10-19T11:37:50.319Z,48160.00
2022-10-19T11:38:49.682Z,45856.00
2022-10-19T11:39:49.176Z,45824.00
2022-10-19T11:41:06.115Z,43680.00
2022-10-19T11:41:51.568Z,42080.00
2022-10-19T11:42:51.091Z,45632.00
2022-10-19T11:43:51.617Z,45728.00
2022-10-19T11:44:52.131Z,44704.00
2022-10-19T11:45:52.659Z,47136.00
2022-10-19T11:46:53.067Z,45344.00
2022-10-19T11:47:54.025Z,43776.00
2022-10-19T11:48:55.147Z,46112.00
2022-10-19T11:49:55.722Z,45664.00
2022-10-19T11:51:04.100Z,46016.00
2022-10-19T11:51:58.148Z,45344.00
2022-10-19T11:52:57.702Z,47104.00
2022-10-19T11:53:58.277Z,47552.00
2022-10-19T11:54:58.827Z,46144.00
2022-10-19T11:55:59.390Z,44384.00
2022-10-19T11:57:06.385Z,44608.00
2022-10-19T11:58:01.831Z,44064.00
2022-10-19T11:59:01.524Z,46144.00
2022-10-19T12:00:13.665Z,47744.00
2022-10-19T12:01:03.898Z,48736.00
2022-10-19T12:02:03.982Z,46624.00
2022-10-19T12:03:04.578Z,43200.00
2022-10-19T12:04:05.019Z,33408.00
2022-10-19T12:05:05.568Z,39744.00
2022-10-19T12:06:06.037Z,43968.00
2022-10-19T12:07:07.047Z,43008.00
2022-10-19T12:08:07.653Z,36192.00
2022-10-19T12:09:08.187Z,35040.00
2022-10-19T12:10:08.718Z,33792.00
2022-10-19T12:11:09.188Z,35456.00
2022-10-19T12:12:10.256Z,33536.00
2022-10-19T12:13:10.796Z,31072.00
2022-10-19T12:14:11.439Z,30144.00
2022-10-19T12:15:11.990Z,30016.00
2022-10-19T12:16:12.500Z,27072.00
2022-10-19T12:18:13.564Z,29184.00
2022-10-19T12:19:14.149Z,31360.00
2022-10-19T12:20:17.468Z,32512.00
2022-10-19T12:21:16.606Z,34912.00
2022-10-19T12:22:16.216Z,30528.00
2022-10-19T12:23:16.741Z,33856.00
2022-10-19T12:24:17.359Z,31648.00
2022-10-19T12:25:17.897Z,33728.00
2022-10-19T12:27:19.427Z,31552.00
2022-10-19T12:28:20.007Z,31008.00
2022-10-19T12:29:20.643Z,30976.00
2022-10-19T12:30:21.191Z,28576.00
2022-10-19T12:31:21.713Z,27840.00
2022-10-19T12:32:22.518Z,27200.00
2022-10-19T12:33:23.004Z,27264.00
2022-10-19T12:34:23.587Z,26368.00
2022-10-19T12:35:24.123Z,25792.00
2022-10-19T12:36:24.682Z,28160.00
2022-10-19T12:37:25.246Z,28384.00
2022-10-19T12:38:25.845Z,26464.00
2022-10-19T12:39:26.448Z,25632.00
2022-10-19T12:40:27.010Z,24800.00
2022-10-19T12:41:27.566Z,24416.00
2022-10-19T12:42:28.119Z,24704.00
2022-10-19T12:43:28.691Z,25312.00
2022-10-19T12:44:29.303Z,26272.00
2022-10-19T12:45:29.863Z,27424.00
2022-10-19T12:46:30.441Z,32480.00
2022-10-19T12:47:30.971Z,30368.00
2022-10-19T12:48:31.569Z,31232.00
2022-10-19T12:49:32.162Z,28992.00
2022-10-19T12:50:35.024Z,30784.00
2022-10-19T12:51:34.611Z,32256.00
2022-10-19T12:52:34.556Z,31232.00
2022-10-19T12:53:34.745Z,32352.00
2022-10-19T12:54:35.366Z,34944.00
2022-10-19T12:55:36.038Z,31328.00
2022-10-19T12:56:36.529Z,29888.00
2022-10-19T12:57:37.457Z,32224.00
2022-10-19T12:58:37.650Z,32064.00
2022-10-19T12:59:38.266Z,32320.00
2022-10-19T13:00:39.069Z,31904.00
2022-10-19T13:01:39.600Z,34208.00
2022-10-19T13:02:40.132Z,37280.00
2022-10-19T13:03:40.696Z,34912.00
2022-10-19T13:04:41.311Z,32320.00
2022-10-19T13:05:41.850Z,32576.00
2022-10-19T13:06:42.399Z,37056.00
2022-10-19T13:07:42.980Z,38016.00
2022-10-19T13:08:43.557Z,36608.00
2022-10-19T13:09:44.170Z,32160.00
2022-10-19T13:10:44.694Z,29376.00
2022-10-19T13:11:45.249Z,28000.00
2022-10-19T13:12:45.842Z,27168.00
2022-10-19T13:13:46.421Z,26400.00
2022-10-19T13:14:47.021Z,24448.00
2022-10-19T13:15:47.586Z,25856.00
2022-10-19T13:16:48.122Z,27168.00
2022-10-19T13:17:48.685Z,26944.00
2022-10-19T13:18:49.263Z,24928.00
2022-10-19T13:19:49.979Z,25344.00
2022-10-19T13:20:50.481Z,26048.00
2022-10-19T13:21:51.103Z,24768.00
2022-10-19T13:22:51.643Z,24416.00
2022-10-19T13:23:52.225Z,24448.00
2022-10-19T13:24:52.817Z,26400.00
2022-10-19T13:25:53.372Z,23584.00
2022-10-19T13:26:53.905Z,21376.00
2022-10-19T13:27:54.453Z,22816.00
2022-10-19T13:28:54.996Z,18400.00
2022-10-19T13:29:55.628Z,20640.00
2022-10-19T13:31:03.250Z,22880.00
2022-10-19T13:31:57.935Z,22016.00
2022-10-19T13:32:57.508Z,19168.00
2022-10-19T13:33:58.125Z,18720.00
2022-10-19T13:34:58.656Z,21632.00
2022-10-19T13:35:59.199Z,23872.00
2022-10-19T13:36:59.757Z,20608.00
2022-10-19T13:38:00.320Z,21824.00
2022-10-19T13:39:00.875Z,22720.00
2022-10-19T13:40:01.469Z,19072.00
2022-10-19T13:41:02.037Z,18848.00
2022-10-19T13:42:02.586Z,19328.00
2022-10-19T13:43:03.146Z,20640.00
2022-10-19T13:44:03.690Z,21568.00
2022-10-19T13:45:04.185Z,21152.00
2022-10-19T13:46:04.634Z,17888.00
2022-10-19T13:47:05.742Z,19168.00
2022-10-19T13:48:06.140Z,21696.00
2022-10-19T13:49:07.307Z,21344.00
2022-10-19T13:50:07.835Z,18976.00
2022-10-19T13:51:08.330Z,20224.00
2022-10-19T13:52:09.348Z,18816.00
2022-10-19T13:53:09.926Z,15360.00
2022-10-19T13:54:10.497Z,14112.00
2022-10-19T13:55:11.111Z,14304.00
2022-10-19T13:56:11.578Z,14496.00
2022-10-19T13:57:12.624Z,14560.00
2022-10-19T13:58:13.200Z,13600.00
2022-10-19T13:59:13.883Z,13376.00
2022-10-19T14:00:14.757Z,13504.00
2022-10-19T14:01:16.400Z,12668.00
2022-10-19T14:02:16.020Z,12336.00
2022-10-19T14:03:16.532Z,11940.00
2022-10-19T14:04:17.086Z,11260.00
2022-10-19T14:05:17.660Z,10572.00
2022-10-19T14:08:07.381Z,9700.00
2022-10-19T14:09:07.941Z,9752.00
2022-10-19T14:10:08.414Z,9068.00
2022-10-19T14:11:08.921Z,8816.00
2022-10-19T14:12:09.453Z,8764.00
2022-10-19T14:13:10.019Z,8404.00
2022-10-19T14:14:10.548Z,8208.00
2022-10-19T14:15:11.112Z,8308.00
2022-10-19T14:16:11.647Z,8144.00
2022-10-19T14:17:12.248Z,7672.00
2022-10-19T14:18:19.215Z,7556.00
2022-10-19T14:19:14.459Z,7328.00
2022-10-19T14:20:14.488Z,7256.00
2022-10-19T14:21:15.007Z,6924.00
2022-10-19T14:22:15.569Z,6988.00
2022-10-19T14:23:16.126Z,6528.00
2022-10-19T14:24:16.705Z,6620.00
2022-10-19T14:25:17.244Z,6544.00
2022-10-19T14:26:17.839Z,6768.00
2022-10-19T14:27:18.385Z,6860.00
2022-10-19T14:28:18.802Z,6816.00
2022-10-19T14:29:19.879Z,6568.00
2022-10-19T14:30:20.428Z,6284.00
2022-10-19T14:31:20.950Z,6208.00
2022-10-19T14:32:21.506Z,6064.00
2022-10-19T14:33:22.027Z,6132.00
2022-10-19T14:34:22.481Z,6008.00
2022-10-19T14:35:23.528Z,5800.00
2022-10-19T14:36:24.109Z,5804.00
2022-10-19T14:37:24.637Z,5696.00
2022-10-19T14:38:25.639Z,5728.00
2022-10-19T14:39:26.189Z,5676.00
2022-10-19T14:40:28.029Z,5688.00
2022-10-19T14:41:27.414Z,5820.00
2022-10-19T14:42:27.917Z,5856.00
2022-10-19T14:43:28.500Z,5812.00
